Time;durP1;ratioP1;P1;durP2;ratioP2;P2;SDS_P1;SDS_P2;PMS_P1;PMS_P2;Temp;Humidity;BMP_temperature;BMP_pressure;BME280_temperature;BME280_humidity;BME280_pressure;Samples;Min_cycle;Max_cycle;Signal;HPM_P1;HPM_P2
2021/03/14 00:00:53;;;;;;;0.00;0.00;;;;;;;;;;6259282;22;20023;-93
2021/03/14 00:03:26;;;;;;;0.00;0.00;;;;;;;;;;6262415;22;20342;-94
2021/03/14 00:06:09;;;;;;;0.00;0.00;;;;;;;;;;6261897;22;20008;-94
2021/03/14 00:08:49;;;;;;;0.00;0.00;;;;;;;;;;6262224;22;19999;-93
2021/03/14 00:11:18;;;;;;;0.00;0.00;;;;;;;;;;6223556;23;20024;-94
2021/03/14 00:16:50;;;;;;;0.00;0.00;;;;;;;;;;6204381;23;20374;-94
2021/03/14 00:19:28;;;;;;;0.00;0.00;;;;;;;;;;6225493;23;20003;-93
2021/03/14 00:21:59;;;;;;;0.00;0.00;;;;;;;;;;6221556;23;19999;-94
2021/03/14 00:24:33;;;;;;;0.00;0.00;;;;;;;;;;6222939;23;20004;-94
2021/03/14 00:26:58;;;;;;;0.00;0.00;;;;;;;;;;6218904;23;20003;-95
2021/03/14 00:29:26;;;;;;;0.00;0.00;;;;;;;;;;6221848;23;20031;-94
2021/03/14 00:31:52;;;;;;;0.00;0.00;;;;;;;;;;6221006;23;20000;-94
2021/03/14 00:34:17;;;;;;;0.00;0.00;;;;;;;;;;6219962;23;20231;-94
2021/03/14 00:36:43;;;;;;;0.00;0.00;;;;;;;;;;6254481;22;19999;-93
2021/03/14 00:39:11;;;;;;;0.00;0.00;;;;;;;;;;6257664;22;19999;-93
2021/03/14 00:41:39;;;;;;;0.00;0.00;;;;;;;;;;6259791;22;19998;-93
2021/03/14 00:44:05;;;;;;;0.00;0.00;;;;;;;;;;6258429;22;20052;-93
2021/03/14 00:46:30;;;;;;;0.00;0.00;;;;;;;;;;6257909;22;20201;-93
2021/03/14 00:48:56;;;;;;;0.00;0.00;;;;;;;;;;6257945;22;19999;-94
2021/03/14 00:51:22;;;;;;;0.00;0.00;;;;;;;;;;6257814;22;20415;-93
2021/03/14 00:53:51;;;;;;;0.00;0.00;;;;;;;;;;6256209;22;20003;-96
2021/03/14 00:56:17;;;;;;;0.00;0.00;;;;;;;;;;6256745;22;19996;-93
2021/03/14 00:58:42;;;;;;;0.00;0.00;;;;;;;;;;6257818;22;19995;-94
2021/03/14 01:01:27;;;;;;;0.00;0.00;;;;;;;;;;6259036;22;20036;-93
2021/03/14 01:03:53;;;;;;;0.00;0.00;;;;;;;;;;6261627;22;20018;-93
2021/03/14 01:06:33;;;;;;;0.00;0.00;;;;;;;;;;6258490;22;20082;-94
2021/03/14 01:09:22;;;;;;;0.10;0.10;;;;;;;;;;6264071;22;20078;-94
2021/03/14 01:11:52;;;;;;;0.00;0.00;;;;;;;;;;6251687;22;20125;-93
2021/03/14 01:14:36;;;;;;;0.00;0.00;;;;;;;;;;6254398;22;20007;-94
2021/03/14 01:17:01;;;;;;;0.00;0.00;;;;;;;;;;6258555;22;19995;-94
2021/03/14 01:19:27;;;;;;;0.00;0.00;;;;;;;;;;6255986;22;20350;-94
2021/03/14 01:21:52;;;;;;;0.00;0.00;;;;;;;;;;6256579;22;19995;-93
2021/03/14 01:24:18;;;;;;;0.00;0.00;;;;;;;;;;6257096;22;20086;-94
2021/03/14 01:26:43;;;;;;;0.05;0.05;;;;;;;;;;6256658;22;20015;-94
2021/03/14 01:29:09;;;;;;;0.00;0.00;;;;;;;;;;6256244;22;20003;-93
2021/03/14 01:31:35;;;;;;;0.00;0.00;;;;;;;;;;6256620;22;19999;-94
2021/03/14 01:34:00;;;;;;;0.00;0.00;;;;;;;;;;6256159;22;20003;-93
2021/03/14 01:36:26;;;;;;;0.75;0.75;;;;;;;;;;6256273;22;20086;-95
2021/03/14 01:38:54;;;;;;;0.00;0.00;;;;;;;;;;6256524;22;19995;-94
2021/03/14 01:41:22;;;;;;;0.00;0.00;;;;;;;;;;6256815;22;20406;-93
2021/03/14 01:43:51;;;;;;;0.00;0.00;;;;;;;;;;6256998;22;20006;-94
2021/03/14 01:46:22;;;;;;;0.00;0.00;;;;;;;;;;6258314;22;20000;-93
2021/03/14 01:49:10;;;;;;;0.00;0.00;;;;;;;;;;6260097;22;19999;-93
2021/03/14 01:51:36;;;;;;;0.00;0.00;;;;;;;;;;6263048;22;20003;-94
2021/03/14 01:54:07;;;;;;;0.00;0.00;;;;;;;;;;6257754;22;20082;-94
2021/03/14 01:56:32;;;;;;;0.00;0.00;;;;;;;;;;6258996;22;20485;-95
2021/03/14 01:59:19;;;;;;;0.00;0.00;;;;;;;;;;6257720;22;19997;-92
2021/03/14 02:01:44;;;;;;;0.00;0.00;;;;;;;;;;6257819;22;20082;-93
2021/03/14 02:04:15;;;;;;;0.30;0.30;;;;;;;;;;6257512;22;20007;-94
2021/03/14 02:06:42;;;;;;;;;;;;;;;;;;6257524;22;20431;-94
2021/03/14 02:09:08;;;;;;;0.00;0.00;;;;;;;;;;6282812;22;19907;-95
2021/03/14 02:11:34;;;;;;;0.00;0.00;;;;;;;;;;6258427;22;20068;-94
2021/03/14 02:14:03;;;;;;;0.00;0.00;;;;;;;;;;6257751;22;20014;-94
2021/03/14 02:16:29;;;;;;;0.00;0.00;;;;;;;;;;6258897;22;20003;-94
2021/03/14 02:19:03;;;;;;;3.63;1.30;;;;;;;;;;6258290;22;19991;-93
2021/03/14 02:21:31;;;;;;;0.00;0.00;;;;;;;;;;6259450;22;20485;-94
2021/03/14 02:24:05;;;;;;;0.00;0.00;;;;;;;;;;6258704;22;20003;-93
2021/03/14 02:26:40;;;;;;;5.00;1.75;;;;;;;;;;6259484;22;20004;-93
2021/03/14 02:29:07;;;;;;;0.00;0.00;;;;;;;;;;6257879;22;19999;-94
2021/03/14 02:31:40;;;;;;;0.00;0.00;;;;;;;;;;6259992;22;20004;-93
2021/03/14 02:34:14;;;;;;;0.00;0.00;;;;;;;;;;6261525;22;19999;-93
2021/03/14 02:37:07;;;;;;;0.00;0.00;;;;;;;;;;6259817;22;20003;-94
2021/03/14 02:40:02;;;;;;;0.20;0.20;;;;;;;;;;6263594;22;19995;-94
2021/03/14 02:42:28;;;;;;;0.00;0.00;;;;;;;;;;6245618;22;20023;-94
2021/03/14 02:44:53;;;;;;;0.00;0.00;;;;;;;;;;6259052;22;20002;-95
2021/03/14 02:47:19;;;;;;;0.00;0.00;;;;;;;;;;6258451;22;19995;-94
2021/03/14 02:49:50;;;;;;;0.00;0.00;;;;;;;;;;6257598;22;20087;-93
2021/03/14 02:52:24;;;;;;;0.00;0.00;;;;;;;;;;6260292;22;20047;-93
2021/03/14 02:54:54;;;;;;;0.00;0.00;;;;;;;;;;6261236;22;20029;-94
2021/03/14 02:57:23;;;;;;;0.00;0.00;;;;;;;;;;6259890;22;20425;-95
2021/03/14 02:59:49;;;;;;;0.00;0.00;;;;;;;;;;6259893;22;19995;-94
2021/03/14 03:02:18;;;;;;;0.00;0.00;;;;;;;;;;6255670;22;20029;-95
2021/03/14 03:04:44;;;;;;;0.00;0.00;;;;;;;;;;6259552;22;20346;-94
2021/03/14 03:07:13;;;;;;;0.30;0.30;;;;;;;;;;6283966;22;20014;-95
2021/03/14 03:09:39;;;;;;;0.00;0.00;;;;;;;;;;6259046;22;20048;-94
2021/03/14 03:12:07;;;;;;;0.00;0.00;;;;;;;;;;6258916;22;20070;-94
2021/03/14 03:14:36;;;;;;;0.00;0.00;;;;;;;;;;6259167;22;20003;-94
2021/03/14 03:17:11;;;;;;;0.00;0.00;;;;;;;;;;6258927;22;19995;-94
2021/03/14 03:19:37;;;;;;;0.00;0.00;;;;;;;;;;6260018;22;19999;-94
2021/03/14 03:22:08;;;;;;;0.00;0.00;;;;;;;;;;6258001;22;20006;-94
2021/03/14 03:24:33;;;;;;;0.00;0.00;;;;;;;;;;6259820;22;20082;-94
2021/03/14 03:27:12;;;;;;;0.00;0.00;;;;;;;;;;6258299;22;20303;-94
2021/03/14 03:29:37;;;;;;;0.00;0.00;;;;;;;;;;6262071;22;20110;-94
2021/03/14 03:32:03;;;;;;;0.00;0.00;;;;;;;;;;6258744;22;19999;-94
2021/03/14 03:34:31;;;;;;;0.00;0.00;;;;;;;;;;6256991;22;19995;-94
2021/03/14 03:36:57;;;;;;;0.00;0.00;;;;;;;;;;6256585;22;19999;-93
2021/03/14 03:39:27;;;;;;;0.00;0.00;;;;;;;;;;6251982;22;20000;-95
2021/03/14 03:41:58;;;;;;;0.00;0.00;;;;;;;;;;6255947;22;19995;-94
2021/03/14 03:44:24;;;;;;;0.00;0.00;;;;;;;;;;6259000;22;20322;-94
2021/03/14 03:46:58;;;;;;;0.00;0.00;;;;;;;;;;6256096;22;20021;-93
2021/03/14 03:49:25;;;;;;;0.00;0.00;;;;;;;;;;6258111;22;20006;-94
2021/03/14 03:51:51;;;;;;;0.00;0.00;;;;;;;;;;6257999;22;20022;-94
2021/03/14 03:54:19;;;;;;;0.00;0.00;;;;;;;;;;6258377;22;20293;-95
2021/03/14 03:56:45;;;;;;;0.00;0.00;;;;;;;;;;6258920;22;20140;-94
2021/03/14 03:59:11;;;;;;;0.00;0.00;;;;;;;;;;6258960;22;19999;-94
2021/03/14 04:01:39;;;;;;;0.00;0.00;;;;;;;;;;6258188;22;19995;-93
2021/03/14 04:04:07;;;;;;;0.00;0.00;;;;;;;;;;6257797;22;20042;-93
2021/03/14 04:06:33;;;;;;;0.00;0.00;;;;;;;;;;6258623;22;20011;-94
2021/03/14 04:08:58;;;;;;;0.00;0.00;;;;;;;;;;6258905;22;20038;-93
2021/03/14 04:11:24;;;;;;;0.00;0.00;;;;;;;;;;6266712;22;20428;-94
2021/03/14 04:13:50;;;;;;;0.00;0.00;;;;;;;;;;6257518;22;20081;-93
2021/03/14 04:16:21;;;;;;;0.00;0.00;;;;;;;;;;6258328;22;19999;-93
2021/03/14 04:18:51;;;;;;;;;;;;;;;;;;6259290;22;20014;-95
2021/03/14 04:21:20;;;;;;;0.00;0.00;;;;;;;;;;6283828;22;19934;-92
2021/03/14 04:23:49;;;;;;;0.00;0.00;;;;;;;;;;6258468;22;20484;-94
2021/03/14 04:26:15;;;;;;;0.00;0.00;;;;;;;;;;6257376;22;19999;-95
2021/03/14 04:28:40;;;;;;;0.00;0.00;;;;;;;;;;6257401;22;20003;-94
2021/03/14 04:31:06;;;;;;;0.00;0.00;;;;;;;;;;6257870;22;20001;-94
2021/03/14 04:33:32;;;;;;;0.43;0.43;;;;;;;;;;6256466;22;20445;-93
2021/03/14 04:35:59;;;;;;;0.00;0.00;;;;;;;;;;6257186;22;20334;-94
2021/03/14 04:38:25;;;;;;;0.00;0.00;;;;;;;;;;6257221;22;20023;-94
2021/03/14 04:40:51;;;;;;;0.00;0.00;;;;;;;;;;6257134;22;20006;-93
2021/03/14 04:43:17;;;;;;;0.00;0.00;;;;;;;;;;6257236;22;20005;-93
2021/03/14 04:45:43;;;;;;;0.00;0.00;;;;;;;;;;6256711;22;20026;-94
2021/03/14 04:48:08;;;;;;;0.00;0.00;;;;;;;;;;6256652;22;20009;-95
2021/03/14 04:50:34;;;;;;;0.00;0.00;;;;;;;;;;6256695;22;20027;-94
2021/03/14 04:52:59;;;;;;;0.00;0.00;;;;;;;;;;6257086;22;20086;-94
2021/03/14 04:55:25;;;;;;;0.00;0.00;;;;;;;;;;6256382;22;20537;-95
2021/03/14 04:57:53;;;;;;;0.00;0.00;;;;;;;;;;6254348;22;20006;-94
2021/03/14 05:00:19;;;;;;;0.00;0.00;;;;;;;;;;6257306;22;19995;-94
2021/03/14 05:02:47;;;;;;;0.00;0.00;;;;;;;;;;6256547;22;20033;-94
2021/03/14 05:05:12;;;;;;;0.00;0.00;;;;;;;;;;6256003;22;19998;-94
2021/03/14 05:07:38;;;;;;;0.00;0.00;;;;;;;;;;6256633;22;20000;-94
2021/03/14 05:10:06;;;;;;;0.00;0.00;;;;;;;;;;6256331;22;20000;-93
2021/03/14 05:12:32;;;;;;;0.00;0.00;;;;;;;;;;6256363;22;19999;-94
2021/03/14 05:14:57;;;;;;;1.17;1.17;;;;;;;;;;6256463;22;20048;-94
2021/03/14 05:17:23;;;;;;;0.60;0.60;;;;;;;;;;6256325;22;20074;-95
2021/03/14 05:19:48;;;;;;;0.00;0.00;;;;;;;;;;6256668;22;20075;-94
2021/03/14 05:22:13;;;;;;;0.08;0.08;;;;;;;;;;6256095;22;20048;-93
2021/03/14 05:24:39;;;;;;;0.00;0.00;;;;;;;;;;6255742;22;20007;-92
2021/03/14 05:27:05;;;;;;;0.00;0.00;;;;;;;;;;6256039;22;19999;-94
2021/03/14 05:29:30;;;;;;;0.55;0.55;;;;;;;;;;6256336;22;20026;-94
2021/03/14 05:31:56;;;;;;;0.00;0.00;;;;;;;;;;6256164;22;19999;-93
2021/03/14 05:34:22;;;;;;;0.00;0.00;;;;;;;;;;6255687;22;20029;-94
2021/03/14 05:36:47;;;;;;;0.00;0.00;;;;;;;;;;6256251;22;19995;-93
2021/03/14 05:39:13;;;;;;;0.00;0.00;;;;;;;;;;6255762;22;19999;-93
2021/03/14 05:41:39;;;;;;;0.00;0.00;;;;;;;;;;6256323;22;20004;-96
2021/03/14 05:44:05;;;;;;;5.78;3.20;;;;;;;;;;6256573;22;20497;-94
2021/03/14 05:46:30;;;;;;;0.00;0.00;;;;;;;;;;6256215;22;20006;-94
2021/03/14 05:48:58;;;;;;;0.00;0.00;;;;;;;;;;6257351;22;20006;-94
2021/03/14 05:51:26;;;;;;;0.00;0.00;;;;;;;;;;6257747;22;20431;-93
2021/03/14 05:53:52;;;;;;;0.30;0.30;;;;;;;;;;6257349;22;20054;-93
2021/03/14 05:56:17;;;;;;;0.00;0.00;;;;;;;;;;6257978;22;20006;-95
2021/03/14 05:58:43;;;;;;;0.00;0.00;;;;;;;;;;6257816;22;19999;-94
2021/03/14 06:01:11;;;;;;;0.00;0.00;;;;;;;;;;6257955;22;19995;-94
2021/03/14 06:03:37;;;;;;;0.00;0.00;;;;;;;;;;6258197;22;20351;-93
2021/03/14 06:06:11;;;;;;;0.00;0.00;;;;;;;;;;6258144;22;20004;-95
2021/03/14 06:08:37;;;;;;;0.00;0.00;;;;;;;;;;6259537;22;19999;-94
2021/03/14 06:11:02;;;;;;;0.00;0.00;;;;;;;;;;6257768;22;20005;-93
2021/03/14 06:13:28;;;;;;;0.00;0.00;;;;;;;;;;6257693;22;20094;-93
2021/03/14 06:15:54;;;;;;;0.00;0.00;;;;;;;;;;6257791;22;20422;-93
2021/03/14 06:18:21;;;;;;;0.00;0.00;;;;;;;;;;6258372;22;20425;-94
2021/03/14 06:20:47;;;;;;;0.00;0.00;;;;;;;;;;6258660;22;19999;-94
2021/03/14 06:23:14;;;;;;;0.55;0.20;;;;;;;;;;6257302;22;20006;-93
2021/03/14 06:25:41;;;;;;;0.00;0.00;;;;;;;;;;6257835;22;20003;-94
2021/03/14 06:28:06;;;;;;;0.00;0.00;;;;;;;;;;6257634;22;20003;-94
2021/03/14 06:30:32;;;;;;;0.00;0.00;;;;;;;;;;6257980;22;20072;-93
2021/03/14 06:32:59;;;;;;;1.75;1.25;;;;;;;;;;6257318;22;20003;-95
2021/03/14 06:35:25;;;;;;;7.72;2.10;;;;;;;;;;6257334;22;19995;-95
2021/03/14 06:37:50;;;;;;;0.00;0.00;;;;;;;;;;6257519;22;19996;-93
2021/03/14 06:40:16;;;;;;;0.00;0.00;;;;;;;;;;6257349;22;20070;-94
2021/03/14 06:42:42;;;;;;;21.52;3.88;;;;;;;;;;6257316;22;19992;-95
2021/03/14 06:45:08;;;;;;;0.00;0.00;;;;;;;;;;6257779;22;20010;-94
2021/03/14 06:47:36;;;;;;;0.00;0.00;;;;;;;;;;6257432;22;19999;-93
2021/03/14 06:50:01;;;;;;;0.00;0.00;;;;;;;;;;6257016;22;19995;-94
2021/03/14 06:52:30;;;;;;;0.00;0.00;;;;;;;;;;6257412;22;20004;-94
2021/03/14 06:54:55;;;;;;;0.00;0.00;;;;;;;;;;6257227;22;20006;-94
2021/03/14 06:57:21;;;;;;;0.00;0.00;;;;;;;;;;6257173;22;19999;-94
2021/03/14 06:59:48;;;;;;;0.00;0.00;;;;;;;;;;6257885;22;20292;-94
2021/03/14 07:02:14;;;;;;;0.00;0.00;;;;;;;;;;6257877;22;19995;-93
2021/03/14 07:04:41;;;;;;;23.10;1.13;;;;;;;;;;6257533;22;20102;-94
2021/03/14 07:07:11;;;;;;;0.00;0.00;;;;;;;;;;6258081;22;20003;-93
2021/03/14 07:09:37;;;;;;;0.00;0.00;;;;;;;;;;6257774;22;20022;-93
2021/03/14 07:12:03;;;;;;;0.00;0.00;;;;;;;;;;6257033;22;20327;-94
2021/03/14 07:14:28;;;;;;;0.00;0.00;;;;;;;;;;6256701;22;20006;-93
2021/03/14 07:16:55;;;;;;;0.00;0.00;;;;;;;;;;6258324;22;19995;-94
2021/03/14 07:19:27;;;;;;;0.00;0.00;;;;;;;;;;6257662;22;19995;-94
2021/03/14 07:22:02;;;;;;;0.10;0.10;;;;;;;;;;6259428;22;19996;-93
2021/03/14 07:24:28;;;;;;;1.30;1.23;;;;;;;;;;6257724;22;20007;-94
2021/03/14 07:26:54;;;;;;;0.00;0.00;;;;;;;;;;6257951;22;20030;-95
2021/03/14 07:29:26;;;;;;;30.75;2.08;;;;;;;;;;6258715;22;20010;-93
2021/03/14 07:31:57;;;;;;;0.00;0.00;;;;;;;;;;6261068;22;19995;-94
2021/03/14 07:34:23;;;;;;;0.00;0.00;;;;;;;;;;6260222;22;20070;-94
2021/03/14 07:36:49;;;;;;;0.00;0.00;;;;;;;;;;6258604;22;19995;-94
2021/03/14 07:39:17;;;;;;;0.10;0.10;;;;;;;;;;6258999;22;20045;-94
2021/03/14 07:42:06;;;;;;;0.10;0.10;;;;;;;;;;6257507;22;20021;-95
2021/03/14 07:44:36;;;;;;;0.10;0.10;;;;;;;;;;6258630;22;20372;-95
2021/03/14 07:47:02;;;;;;;;;;;;;;;;;;6257164;22;20415;-93
2021/03/14 07:49:33;;;;;;;0.00;0.00;;;;;;;;;;6286472;22;19902;-93
2021/03/14 07:52:35;;;;;;;0.00;0.00;;;;;;;;;;6261196;22;20003;-94
2021/03/14 07:55:04;;;;;;;0.40;0.40;;;;;;;;;;6244218;22;20014;-93
2021/03/14 07:57:29;;;;;;;0.00;0.00;;;;;;;;;;6255758;22;20031;-94
2021/03/14 08:00:05;;;;;;;0.00;0.00;;;;;;;;;;6256988;22;19999;-93
2021/03/14 08:02:30;;;;;;;1.20;1.10;;;;;;;;;;6258572;22;20010;-94
2021/03/14 08:05:00;;;;;;;0.00;0.00;;;;;;;;;;6257819;22;20019;-94
2021/03/14 08:07:33;;;;;;;0.00;0.00;;;;;;;;;;6255482;22;20041;-93
2021/03/14 08:10:02;;;;;;;0.00;0.00;;;;;;;;;;6254163;22;19996;-95
2021/03/14 08:12:35;;;;;;;0.00;0.00;;;;;;;;;;6256856;22;20356;-93
2021/03/14 08:15:00;;;;;;;0.05;0.05;;;;;;;;;;6256727;22;20004;-95
2021/03/14 08:17:33;;;;;;;0.00;0.00;;;;;;;;;;6256841;22;20033;-94
2021/03/14 08:19:59;;;;;;;0.00;0.00;;;;;;;;;;6256989;22;19995;-93
2021/03/14 08:22:41;;;;;;;1.48;1.15;;;;;;;;;;6257491;22;19995;-93
2021/03/14 08:25:22;;;;;;;0.00;0.00;;;;;;;;;;6257452;22;19999;-93
2021/03/14 08:27:48;;;;;;;0.00;0.00;;;;;;;;;;6257985;22;20010;-93
2021/03/14 08:30:32;;;;;;;0.00;0.00;;;;;;;;;;6256685;22;20009;-93
2021/03/14 08:33:07;;;;;;;0.00;0.00;;;;;;;;;;6259369;22;20007;-94
2021/03/14 08:35:48;;;;;;;0.00;0.00;;;;;;;;;;6234176;22;20030;-92
2021/03/14 08:38:28;;;;;;;8.98;1.35;;;;;;;;;;6257372;22;20006;-93
2021/03/14 08:41:07;;;;;;;0.22;0.22;;;;;;;;;;6282211;22;19999;-94
2021/03/14 08:43:51;;;;;;;7.32;2.25;;;;;;;;;;6282043;22;20014;-93
2021/03/14 08:46:20;;;;;;;0.00;0.00;;;;;;;;;;6261133;22;20007;-95
2021/03/14 08:48:54;;;;;;;8.02;1.13;;;;;;;;;;6256350;22;20000;-93
2021/03/14 08:51:19;;;;;;;0.47;0.47;;;;;;;;;;6257206;22;19999;-94
2021/03/14 08:54:09;;;;;;;9.65;0.70;;;;;;;;;;6256290;22;20003;-93
2021/03/14 08:56:46;;;;;;;0.00;0.00;;;;;;;;;;6255168;22;19996;-93
2021/03/14 08:59:38;;;;;;;0.00;0.00;;;;;;;;;;6208114;23;20051;-93
2021/03/14 09:02:35;;;;;;;0.00;0.00;;;;;;;;;;6217894;23;19997;-94
2021/03/14 09:12:35;;;;;;;0.77;0.77;;;;;;;;;;6156599;23;20349;-94
2021/03/14 09:15:34;;;;;;;7.22;2.75;;;;;;;;;;6069468;23;20022;-93
2021/03/14 09:18:29;;;;;;;0.00;0.00;;;;;;;;;;5997472;23;20004;-94
2021/03/14 09:24:24;;;;;;;0.22;0.22;;;;;;;;;;6045186;23;20003;-93
2021/03/14 09:27:15;;;;;;;0.00;0.00;;;;;;;;;;6078715;23;20076;-93
2021/03/14 09:46:40;;;;;;;0.00;0.00;;;;;;;;;;6131680;23;20431;-94
2021/03/14 09:49:40;;;;;;;0.00;0.00;;;;;;;;;;6051275;23;20010;-94
2021/03/14 09:52:56;;;;;;;0.00;0.00;;;;;;;;;;6121540;23;20061;-95
2021/03/14 09:58:46;;;;;;;0.00;0.00;;;;;;;;;;6036327;23;20014;-93
2021/03/14 10:17:54;;;;;;;0.00;0.00;;;;;;;;;;5789054;24;20077;-92
2021/03/14 10:32:39;;;;;;;0.00;0.00;;;;;;;;;;5868318;24;20016;-94
2021/03/14 10:41:41;;;;;;;2.10;1.17;;;;;;;;;;5881322;24;20188;-94
2021/03/14 10:50:14;;;;;;;0.00;0.00;;;;;;;;;;5866913;24;20015;-93
2021/03/14 10:52:40;;;;;;;0.00;0.00;;;;;;;;;;6030432;23;20003;-93
2021/03/14 10:58:32;;;;;;;0.00;0.00;;;;;;;;;;6045393;23;20109;-94
